createdAt,value
2022-11-24T00:02:22.436Z,14.70
2022-11-24T00:04:55.757Z,15.10
2022-11-24T00:07:28.990Z,14.70
2022-11-24T00:10:03.037Z,13.90
2022-11-24T00:12:32.039Z,16.90
2022-11-24T00:15:00.976Z,14.60
2022-11-24T00:17:32.743Z,15.70
2022-11-24T00:20:04.718Z,15.10
2022-11-24T00:22:33.317Z,14.50
2022-11-24T00:25:01.975Z,15.10
2022-11-24T00:27:30.571Z,16.20
2022-11-24T00:29:59.925Z,15.00
2022-11-24T00:32:29.874Z,15.70
2022-11-24T00:37:26.876Z,15.40
2022-11-24T00:39:55.429Z,16.00
2022-11-24T00:42:24.038Z,15.50
2022-11-24T00:44:52.681Z,15.60
2022-11-24T00:47:21.432Z,15.80
2022-11-24T00:49:50.062Z,17.00
2022-11-24T00:52:18.629Z,16.00
2022-11-24T00:54:47.087Z,16.40
2022-11-24T00:57:15.564Z,17.00
2022-11-24T00:59:44.050Z,17.10
2022-11-24T01:02:12.591Z,15.80
2022-11-24T01:04:41.385Z,16.20
2022-11-24T01:07:10.525Z,17.10
2022-11-24T01:09:39.175Z,17.20
2022-11-24T01:12:09.298Z,17.20
2022-11-24T01:17:06.271Z,15.30
2022-11-24T01:19:35.077Z,16.60
2022-11-24T01:22:03.675Z,16.00
2022-11-24T01:24:32.638Z,17.30
2022-11-24T01:27:01.485Z,17.50
2022-11-24T01:29:30.304Z,15.00
2022-11-24T01:31:58.809Z,17.80
2022-11-24T01:34:27.467Z,16.90
2022-11-24T01:36:55.980Z,17.40
2022-11-24T01:39:24.505Z,17.30
2022-11-24T01:41:53.199Z,18.30
2022-11-24T01:44:21.887Z,17.90
2022-11-24T01:47:19.056Z,18.00
2022-11-24T01:49:51.263Z,16.80
2022-11-24T01:52:28.806Z,18.10
2022-11-24T01:55:03.272Z,17.40
2022-11-24T01:57:37.381Z,16.50
2022-11-24T02:00:12.213Z,18.20
2022-11-24T02:02:43.192Z,17.50
2022-11-24T02:05:23.122Z,18.00
2022-11-24T02:07:54.577Z,18.40
2022-11-24T02:10:24.071Z,17.40
2022-11-24T02:12:56.247Z,17.60
2022-11-24T02:15:25.685Z,18.50
2022-11-24T02:17:54.361Z,16.70
2022-11-24T02:20:24.182Z,18.70
2022-11-24T02:23:14.049Z,18.80
2022-11-24T02:25:48.569Z,17.90
2022-11-24T02:28:21.767Z,18.00
2022-11-24T02:30:51.288Z,18.70
2022-11-24T02:33:21.886Z,18.10
2022-11-24T02:35:50.522Z,19.40
2022-11-24T02:38:19.332Z,20.30
2022-11-24T02:40:49.850Z,20.20
2022-11-24T02:43:22.968Z,20.10
2022-11-24T02:45:51.585Z,20.40
2022-11-24T02:48:20.265Z,19.90
2022-11-24T02:50:48.868Z,19.80
2022-11-24T02:53:17.378Z,21.00
2022-11-24T02:55:46.114Z,21.70
2022-11-24T02:58:15.352Z,22.80
2022-11-24T03:00:43.925Z,21.00
2022-11-24T03:03:12.647Z,23.30
2022-11-24T03:05:41.186Z,22.20
2022-11-24T03:08:09.732Z,22.60
2022-11-24T03:10:38.528Z,22.10
2022-11-24T03:13:07.167Z,22.50
2022-11-24T03:15:36.679Z,23.30
2022-11-24T03:18:05.501Z,23.30
2022-11-24T03:20:34.119Z,23.80
2022-11-24T03:23:02.675Z,21.00
2022-11-24T03:25:31.246Z,23.20
2022-11-24T03:27:59.914Z,23.90
2022-11-24T03:30:29.004Z,23.00
2022-11-24T03:32:57.555Z,23.40
2022-11-24T03:35:26.391Z,22.70
2022-11-24T03:37:54.923Z,23.30
2022-11-24T03:40:23.387Z,24.30
2022-11-24T03:42:51.978Z,22.10
2022-11-24T03:45:44.928Z,21.70
2022-11-24T03:48:09.068Z,21.60
2022-11-24T03:50:37.748Z,21.70
2022-11-24T03:53:06.327Z,20.10
2022-11-24T03:55:35.123Z,21.60
2022-11-24T03:58:03.638Z,23.30
2022-11-24T04:00:32.206Z,21.50
2022-11-24T04:03:00.830Z,22.40
2022-11-24T04:05:29.472Z,23.00
2022-11-24T04:07:58.193Z,23.30
2022-11-24T04:10:26.840Z,23.80
2022-11-24T04:12:55.614Z,22.60
2022-11-24T04:15:24.268Z,22.10
2022-11-24T04:17:55.850Z,23.10
2022-11-24T04:20:24.893Z,24.50
2022-11-24T04:22:53.390Z,23.20
2022-11-24T04:25:21.872Z,22.20
2022-11-24T04:27:55.250Z,23.50
2022-11-24T04:30:25.342Z,22.10
2022-11-24T04:32:53.976Z,22.30
2022-11-24T04:35:22.495Z,21.50
2022-11-24T04:37:51.053Z,22.80
2022-11-24T04:40:20.763Z,23.30
2022-11-24T04:42:56.373Z,21.50
2022-11-24T04:45:25.027Z,22.50
2022-11-24T04:47:53.611Z,23.70
2022-11-24T04:50:22.311Z,23.40
2022-11-24T04:52:50.972Z,22.30
2022-11-24T04:55:19.464Z,23.10
2022-11-24T04:57:48.023Z,22.60
2022-11-24T05:00:17.151Z,22.90
2022-11-24T05:02:45.797Z,22.40
2022-11-24T05:05:14.368Z,22.80
2022-11-24T05:07:45.690Z,22.40
2022-11-24T05:10:32.656Z,22.40
2022-11-24T05:13:02.967Z,23.30
2022-11-24T05:17:59.944Z,22.30
2022-11-24T05:20:28.470Z,21.10
2022-11-24T05:23:01.897Z,22.10
2022-11-24T05:25:30.541Z,21.90
2022-11-24T05:28:12.584Z,20.90
2022-11-24T05:30:41.928Z,21.00
2022-11-24T05:33:19.730Z,21.70
2022-11-24T05:35:52.031Z,21.60
2022-11-24T05:38:24.080Z,20.80
2022-11-24T05:40:53.027Z,19.40
2022-11-24T05:43:25.050Z,19.00
2022-11-24T05:46:02.527Z,19.90
2022-11-24T05:48:34.679Z,19.40
2022-11-24T05:51:09.420Z,20.30
2022-11-24T05:53:43.775Z,22.00
2022-11-24T05:56:17.480Z,19.60
2022-11-24T05:58:46.328Z,20.20
2022-11-24T06:01:14.838Z,20.80
2022-11-24T06:03:46.935Z,20.00
2022-11-24T06:06:15.455Z,21.00
2022-11-24T06:08:43.773Z,21.10
2022-11-24T06:11:19.992Z,19.50
2022-11-24T06:13:49.050Z,20.40
2022-11-24T06:16:17.780Z,20.00
2022-11-24T06:18:51.351Z,20.10
2022-11-24T06:21:23.252Z,20.80
2022-11-24T06:23:51.753Z,22.00
2022-11-24T06:26:23.768Z,23.70
2022-11-24T06:28:57.229Z,23.00
2022-11-24T06:31:26.030Z,22.60
2022-11-24T06:33:57.597Z,21.60
2022-11-24T06:36:29.572Z,21.70
2022-11-24T06:39:02.603Z,20.80
2022-11-24T06:41:35.051Z,23.30
2022-11-24T06:44:08.927Z,21.90
2022-11-24T06:46:42.390Z,21.90
2022-11-24T06:49:11.254Z,21.40
2022-11-24T06:51:42.934Z,21.80
2022-11-24T06:54:17.021Z,21.20
2022-11-24T06:56:50.043Z,22.10
2022-11-24T06:59:22.093Z,21.30
2022-11-24T07:01:50.714Z,27.10
2022-11-24T07:04:22.184Z,25.70
2022-11-24T07:06:54.199Z,26.00
2022-11-24T07:09:22.539Z,24.30
2022-11-24T07:11:50.971Z,25.20
2022-11-24T07:14:19.404Z,27.30
2022-11-24T07:16:47.782Z,27.20
2022-11-24T07:19:20.165Z,30.40
2022-11-24T07:21:51.682Z,28.90
2022-11-24T07:24:20.029Z,29.40
2022-11-24T07:26:48.353Z,28.70
2022-11-24T07:29:16.857Z,26.00
2022-11-24T07:31:46.216Z,26.10
2022-11-24T07:34:14.980Z,24.70
2022-11-24T07:36:45.282Z,26.30
2022-11-24T07:39:13.916Z,25.80
2022-11-24T07:41:42.192Z,27.60
2022-11-24T07:44:11.004Z,26.50
2022-11-24T07:46:39.264Z,24.40
2022-11-24T07:49:07.491Z,26.80
2022-11-24T07:51:37.334Z,24.50
2022-11-24T07:54:05.691Z,23.80
2022-11-24T07:56:34.066Z,25.10
2022-11-24T07:59:02.864Z,24.60
2022-11-24T08:01:31.163Z,27.70
2022-11-24T08:04:01.559Z,23.40
2022-11-24T08:06:38.658Z,22.20
2022-11-24T08:09:09.027Z,22.60
2022-11-24T08:11:37.420Z,23.40
2022-11-24T08:14:05.754Z,23.70
2022-11-24T08:16:34.060Z,23.20
2022-11-24T08:19:02.445Z,24.60
2022-11-24T08:21:30.933Z,23.30
2022-11-24T08:23:59.224Z,22.90
2022-11-24T08:26:27.680Z,24.10
2022-11-24T08:28:58.732Z,23.70
2022-11-24T08:31:33.779Z,23.90
2022-11-24T08:34:03.760Z,23.30
2022-11-24T08:36:33.212Z,25.60
2022-11-24T08:39:02.129Z,23.30
2022-11-24T08:41:31.373Z,21.60
2022-11-24T08:43:59.811Z,20.60
2022-11-24T08:46:28.308Z,21.40
2022-11-24T08:48:56.916Z,22.40
2022-11-24T08:51:27.209Z,22.60
2022-11-24T08:53:58.520Z,22.90
2022-11-24T08:56:29.771Z,22.60
2022-11-24T08:58:58.825Z,23.30
2022-11-24T09:01:27.733Z,23.10
2022-11-24T09:03:56.627Z,21.10
2022-11-24T09:06:27.249Z,21.90
2022-11-24T09:08:55.911Z,20.80
2022-11-24T09:11:25.559Z,20.50
2022-11-24T09:13:55.153Z,20.80
2022-11-24T09:16:29.202Z,21.30
2022-11-24T09:19:00.665Z,21.20
2022-11-24T09:21:31.392Z,21.10
2022-11-24T09:24:00.479Z,20.40
2022-11-24T09:26:32.915Z,21.20
2022-11-24T09:29:03.480Z,20.00
2022-11-24T09:31:34.665Z,20.20
2022-11-24T09:34:15.324Z,19.30
2022-11-24T09:36:43.785Z,19.90
2022-11-24T09:39:12.357Z,19.40
2022-11-24T09:41:46.249Z,19.10
2022-11-24T09:44:24.176Z,18.80
2022-11-24T09:47:18.812Z,20.70
2022-11-24T09:49:53.291Z,20.00
2022-11-24T09:52:47.217Z,19.60
2022-11-24T09:55:31.765Z,19.10
2022-11-24T09:58:12.835Z,19.50
2022-11-24T10:00:42.033Z,20.10
2022-11-24T10:03:39.216Z,20.40
2022-11-24T10:06:27.925Z,21.10
2022-11-24T10:09:17.860Z,21.60
2022-11-24T10:14:23.530Z,21.10
2022-11-24T10:17:04.853Z,22.60
2022-11-24T10:19:39.486Z,22.30
2022-11-24T10:22:29.387Z,23.40
2022-11-24T10:25:12.695Z,20.30
2022-11-24T10:27:45.375Z,21.50
2022-11-24T10:30:24.245Z,20.90
2022-11-24T10:33:08.771Z,20.80
2022-11-24T10:35:57.223Z,21.90
2022-11-24T10:38:44.285Z,20.30
2022-11-24T10:41:14.767Z,20.90
2022-11-24T10:43:43.587Z,21.60
2022-11-24T10:46:30.021Z,21.70
2022-11-24T10:49:04.114Z,21.90
2022-11-24T10:51:53.739Z,22.40
2022-11-24T10:54:24.118Z,22.20
2022-11-24T10:56:54.041Z,22.40
2022-11-24T10:59:25.275Z,24.10
2022-11-24T11:01:53.863Z,22.50
2022-11-24T11:04:28.402Z,22.60
2022-11-24T11:07:20.045Z,22.40
2022-11-24T11:09:48.912Z,21.30
2022-11-24T11:15:24.302Z,21.40
2022-11-24T11:20:30.385Z,20.50
2022-11-24T11:23:02.105Z,21.70
2022-11-24T11:25:35.803Z,22.10
2022-11-24T11:28:18.143Z,21.10
2022-11-24T11:31:17.351Z,22.50
2022-11-24T11:34:29.863Z,21.60
2022-11-24T11:37:00.096Z,21.20
2022-11-24T11:39:58.938Z,21.50
2022-11-24T11:43:03.376Z,23.20
2022-11-24T11:45:31.090Z,25.20
2022-11-24T11:48:03.042Z,30.20
2022-11-24T11:51:21.851Z,33.10
2022-11-24T11:53:47.287Z,30.40
2022-11-24T11:56:27.317Z,27.60
2022-11-24T11:59:04.638Z,24.00
2022-11-24T12:01:35.995Z,22.70
2022-11-24T12:04:35.462Z,21.80
2022-11-24T12:07:28.773Z,24.40
2022-11-24T12:10:02.992Z,23.80
2022-11-24T12:12:41.539Z,20.90
2022-11-24T12:15:18.772Z,20.00
2022-11-24T12:17:47.320Z,21.40
2022-11-24T12:20:37.099Z,21.10
2022-11-24T12:23:56.977Z,21.20
2022-11-24T12:26:39.543Z,19.50
2022-11-24T12:29:13.845Z,21.00
2022-11-24T12:31:52.951Z,20.40
2022-11-24T12:34:34.079Z,21.20
2022-11-24T12:37:12.174Z,21.80
2022-11-24T12:39:49.347Z,21.40
2022-11-24T12:42:27.077Z,21.10
2022-11-24T12:45:13.452Z,20.60
2022-11-24T12:48:14.020Z,20.80
2022-11-24T12:50:44.385Z,21.70
2022-11-24T12:53:17.917Z,18.30
2022-11-24T12:55:47.265Z,20.10
2022-11-24T12:58:18.531Z,21.00
2022-11-24T13:01:28.741Z,21.10
2022-11-24T13:04:06.110Z,22.50
2022-11-24T13:07:00.196Z,25.10
2022-11-24T13:09:28.648Z,25.20
2022-11-24T13:12:14.050Z,26.30
2022-11-24T13:14:44.593Z,27.50
2022-11-24T13:17:50.001Z,30.60
2022-11-24T13:20:42.132Z,28.30
2022-11-24T13:23:23.841Z,26.20
2022-11-24T13:26:15.977Z,26.10
2022-11-24T13:29:23.898Z,25.20
2022-11-24T13:32:20.196Z,25.20
2022-11-24T13:34:55.235Z,22.20
2022-11-24T13:37:31.138Z,23.70
2022-11-24T13:40:12.585Z,22.00
2022-11-24T13:43:07.793Z,23.20
2022-11-24T13:45:50.100Z,25.40
2022-11-24T13:48:22.469Z,26.00
2022-11-24T13:50:51.445Z,29.30
2022-11-24T13:53:29.421Z,32.10
2022-11-24T13:56:03.327Z,24.30
2022-11-24T13:58:38.136Z,22.50
2022-11-24T14:01:09.834Z,22.40
2022-11-24T14:04:27.937Z,25.10
2022-11-24T14:06:47.376Z,26.10
2022-11-24T14:09:24.058Z,23.90
2022-11-24T14:12:12.777Z,25.80
2022-11-24T14:14:42.048Z,25.50
2022-11-24T14:17:21.555Z,24.60
2022-11-24T14:19:52.489Z,22.10
2022-11-24T14:22:23.705Z,21.00
2022-11-24T14:24:54.565Z,22.10
2022-11-24T14:27:29.540Z,23.00
2022-11-24T14:30:04.432Z,31.20
2022-11-24T14:32:32.811Z,41.50
2022-11-24T14:35:01.325Z,32.20
2022-11-24T14:37:29.817Z,29.50
2022-11-24T14:39:58.327Z,27.10
2022-11-24T14:42:27.718Z,25.10
2022-11-24T14:44:56.691Z,22.20
2022-11-24T14:47:31.731Z,21.00
2022-11-24T14:50:23.024Z,22.00
2022-11-24T14:52:57.235Z,19.10
2022-11-24T14:55:31.149Z,17.60
2022-11-24T14:58:00.280Z,19.60
2022-11-24T15:00:32.843Z,19.50
2022-11-24T15:03:01.575Z,19.10
2022-11-24T15:05:51.578Z,20.60
2022-11-24T15:10:48.914Z,22.30
2022-11-24T15:13:21.767Z,21.40
2022-11-24T15:16:03.960Z,23.40
2022-11-24T15:18:43.086Z,22.10
2022-11-24T15:21:19.346Z,23.60
2022-11-24T15:24:17.922Z,21.60
2022-11-24T15:26:46.747Z,21.10
2022-11-24T15:29:15.359Z,25.70
2022-11-24T15:31:47.903Z,25.20
2022-11-24T15:34:20.713Z,25.20
2022-11-24T15:36:49.271Z,24.00
2022-11-24T15:39:17.583Z,22.60
2022-11-24T15:41:45.981Z,24.50
2022-11-24T15:44:14.265Z,25.20
2022-11-24T15:46:42.557Z,25.20
2022-11-24T15:49:10.985Z,25.10
2022-11-24T15:51:43.713Z,26.20
2022-11-24T15:54:15.958Z,25.50
2022-11-24T15:56:44.838Z,23.30
2022-11-24T15:59:20.685Z,21.00
2022-11-24T16:01:50.812Z,20.90
2022-11-24T16:04:19.703Z,20.60
2022-11-24T16:06:48.197Z,21.30
2022-11-24T16:09:17.404Z,21.70
2022-11-24T16:11:53.238Z,23.30
2022-11-24T16:14:22.572Z,21.80
2022-11-24T16:16:51.397Z,21.60
2022-11-24T16:19:30.197Z,24.30
2022-11-24T16:22:47.768Z,22.40
2022-11-24T16:25:25.232Z,23.00
2022-11-24T16:27:57.560Z,24.40
2022-11-24T16:30:29.591Z,26.20
2022-11-24T16:33:06.925Z,26.70
2022-11-24T16:35:48.049Z,25.20
2022-11-24T16:38:23.975Z,27.20
2022-11-24T16:40:57.160Z,27.60
2022-11-24T16:46:38.319Z,23.80
2022-11-24T16:49:10.929Z,21.50
2022-11-24T16:51:43.811Z,22.00
2022-11-24T17:06:01.691Z,26.40
2022-11-24T17:08:35.191Z,26.00
2022-11-24T17:11:18.433Z,26.50
2022-11-24T17:13:50.008Z,24.60
2022-11-24T17:16:24.111Z,24.70
2022-11-24T17:18:58.920Z,22.60
2022-11-24T17:21:30.368Z,22.40
2022-11-24T17:24:06.105Z,23.80
2022-11-24T17:26:37.603Z,24.90
2022-11-24T17:29:10.027Z,23.50
2022-11-24T17:32:05.788Z,24.50
2022-11-24T17:34:37.246Z,23.90
2022-11-24T17:37:05.993Z,23.90
2022-11-24T17:39:34.571Z,22.00
2022-11-24T17:42:05.629Z,25.10
2022-11-24T17:44:38.622Z,23.10
2022-11-24T17:47:09.886Z,23.20
2022-11-24T17:49:43.844Z,21.10
2022-11-24T17:52:18.104Z,21.90
2022-11-24T17:54:51.080Z,20.80
2022-11-24T17:57:22.016Z,22.80
2022-11-24T17:59:53.408Z,21.20
2022-11-24T18:02:24.372Z,19.60
2022-11-24T18:04:55.372Z,19.60
2022-11-24T18:07:26.433Z,19.30
2022-11-24T18:10:00.080Z,20.10
2022-11-24T18:12:36.273Z,18.60
2022-11-24T18:15:28.424Z,16.90
2022-11-24T18:18:04.841Z,17.50
2022-11-24T18:20:33.811Z,18.40
2022-11-24T18:23:06.295Z,18.80
2022-11-24T18:25:37.385Z,18.30
2022-11-24T18:28:06.385Z,20.00
2022-11-24T18:30:34.803Z,19.90
2022-11-24T18:33:03.206Z,19.10
2022-11-24T18:35:31.656Z,20.70
2022-11-24T18:38:00.101Z,20.00
2022-11-24T18:40:28.574Z,18.90
2022-11-24T18:42:57.087Z,19.20
2022-11-24T18:45:28.177Z,18.90
2022-11-24T18:47:56.667Z,19.30
2022-11-24T18:50:27.501Z,19.70
2022-11-24T18:52:55.921Z,19.40
2022-11-24T18:55:24.377Z,19.00
2022-11-24T18:57:53.943Z,19.90
2022-11-24T19:00:22.550Z,20.30
2022-11-24T19:02:52.137Z,18.00
2022-11-24T19:05:20.818Z,18.40
2022-11-24T19:07:49.341Z,18.10
2022-11-24T19:10:18.070Z,17.90
2022-11-24T19:12:46.680Z,16.80
2022-11-24T19:15:15.111Z,18.70
2022-11-24T19:17:47.187Z,19.30
2022-11-24T19:20:15.947Z,17.90
2022-11-24T19:22:44.318Z,19.50
2022-11-24T19:25:12.622Z,20.80
2022-11-24T19:27:40.968Z,18.90
2022-11-24T19:30:10.457Z,16.80
2022-11-24T19:32:38.961Z,19.10
2022-11-24T19:36:06.312Z,18.60
2022-11-24T19:38:35.743Z,18.10
2022-11-24T19:41:09.273Z,17.70
2022-11-24T19:43:38.211Z,17.00
2022-11-24T19:46:09.503Z,16.10
2022-11-24T19:48:40.428Z,16.20
2022-11-24T19:51:12.484Z,17.80
2022-11-24T19:53:42.081Z,17.40
2022-11-24T19:56:17.028Z,16.90
2022-11-24T19:58:46.080Z,16.00
2022-11-24T20:01:17.763Z,15.80
2022-11-24T20:03:55.243Z,18.20
2022-11-24T20:06:23.835Z,17.00
2022-11-24T20:08:52.175Z,17.50
2022-11-24T20:11:21.926Z,17.00
2022-11-24T20:13:51.884Z,14.90
2022-11-24T20:16:31.369Z,15.10
2022-11-24T20:19:06.181Z,14.70
2022-11-24T20:21:37.516Z,14.90
2022-11-24T20:24:10.338Z,15.40
2022-11-24T20:26:51.502Z,15.90
2022-11-24T20:29:20.743Z,13.50
2022-11-24T20:31:54.837Z,15.80
2022-11-24T20:34:24.469Z,16.40
2022-11-24T20:36:53.456Z,15.40
2022-11-24T20:39:26.511Z,15.50
2022-11-24T20:41:57.675Z,14.90
2022-11-24T20:44:27.868Z,15.50
2022-11-24T20:46:59.860Z,15.90
2022-11-24T20:49:31.416Z,15.90
2022-11-24T21:02:01.176Z,15.00
2022-11-24T21:04:35.460Z,14.90
2022-11-24T21:13:47.977Z,13.90
2022-11-24T21:23:03.802Z,21.20
2022-11-24T21:25:32.281Z,21.30
2022-11-24T21:28:04.347Z,18.60
2022-11-24T21:30:34.214Z,17.10
2022-11-24T21:33:04.632Z,17.20
2022-11-24T21:35:37.128Z,14.10
2022-11-24T21:38:05.770Z,14.60
2022-11-24T21:40:34.255Z,15.00
2022-11-24T21:43:03.768Z,19.10
2022-11-24T21:45:34.860Z,18.50
2022-11-24T21:48:05.683Z,14.50
2022-11-24T21:50:34.159Z,14.60
2022-11-24T21:53:03.713Z,14.60
2022-11-24T21:55:32.306Z,15.20
2022-11-24T21:58:00.668Z,13.90
2022-11-24T22:00:29.049Z,12.50
2022-11-24T22:02:57.320Z,13.10
2022-11-24T22:05:25.787Z,13.20
2022-11-24T22:07:54.234Z,13.70
2022-11-24T22:10:22.599Z,14.10
2022-11-24T22:12:50.887Z,14.00
2022-11-24T22:15:19.138Z,13.30
2022-11-24T22:17:47.341Z,13.60
2022-11-24T22:20:15.868Z,12.90
2022-11-24T22:22:44.385Z,13.70
2022-11-24T22:25:12.660Z,12.30
2022-11-24T22:27:41.631Z,14.60
2022-11-24T22:30:10.976Z,15.10
2022-11-24T22:32:39.262Z,13.50
2022-11-24T22:35:08.499Z,14.10
2022-11-24T22:37:36.869Z,14.50
2022-11-24T22:40:06.193Z,15.00
2022-11-24T22:42:35.270Z,14.40
2022-11-24T22:45:03.949Z,14.40
2022-11-24T22:47:34.654Z,21.60
2022-11-24T22:50:02.999Z,23.00
2022-11-24T22:52:31.374Z,21.10
2022-11-24T22:55:00.237Z,19.10
2022-11-24T22:57:28.572Z,16.20
2022-11-24T22:59:56.993Z,15.60
2022-11-24T23:02:25.391Z,11.80
2022-11-24T23:04:53.752Z,14.70
2022-11-24T23:07:22.177Z,14.40
2022-11-24T23:09:51.051Z,13.10
2022-11-24T23:12:19.360Z,12.90
2022-11-24T23:14:47.714Z,13.20
2022-11-24T23:17:16.158Z,12.20
2022-11-24T23:19:44.595Z,13.30
2022-11-24T23:22:12.951Z,13.00
2022-11-24T23:24:41.285Z,12.80
2022-11-24T23:27:10.176Z,13.70
2022-11-24T23:29:38.588Z,13.20
2022-11-24T23:32:06.885Z,14.60
2022-11-24T23:34:35.777Z,13.20
2022-11-24T23:37:04.411Z,12.70
2022-11-24T23:39:32.616Z,13.00
2022-11-24T23:42:00.998Z,13.20
2022-11-24T23:44:29.335Z,12.40
2022-11-24T23:46:57.658Z,11.20
2022-11-24T23:49:26.317Z,12.40
2022-11-24T23:51:54.653Z,13.10
2022-11-24T23:54:27.630Z,13.70
2022-11-24T23:56:56.064Z,12.90
2022-11-24T23:59:24.363Z,13.90
